Latest Weather Observations for Marrangaroo (Defence)

IDN60801

Issued at 9:03 pm EST Wednesday 5 August 2020 (issued every 10 minutes, with the page automatically refreshed every 10 minutes)

About weather observations | Map of weather stations | Latest weather observations for NSW | Other Formats
Station Details ID: 063308 Name: MARRANGAROO (DEFENCE) Lat: -33.43 Lon: 150.13 Height: 955.0 m
Data from the previous 72 hours. | See also: Recent months at Marrangaroo (Defence)
Date/Time
EST
Temp
°C
App
Temp
°C
Dew
Point
°C
Rel
Hum
%
Delta-T
°C
Wind Press
QNH
hPa
Press
MSL
hPa
Rain since
9am
mm
Dir  Spd
km/h
Gust
km/h
Spd
kts
Gust
kts
05/09:00pm 2.3 -2.5 -2.6 70 1.8 W 13 26 7 14 - - 0.0
05/08:30pm 2.3 -2.1 -2.2 72 1.7 W 11 26 6 14 - - 0.0
05/08:00pm 2.2 -1.7 -1.8 75 1.5 WNW 9 20 5 11 - - 0.0
05/07:30pm 2.3 -1.3 -2.0 73 1.6 WNW 7 20 4 11 - - 0.0
05/07:00pm 2.6 -1.8 -2.3 70 1.8 W 11 20 6 11 - - 0.0
05/06:30pm 2.9 -1.1 -2.4 68 2.0 W 9 19 5 10 - - 0.0
05/06:00pm 3.2 -1.2 -2.3 67 2.1 W 11 22 6 12 - - 0.0
05/05:30pm 3.9 -0.2 -2.7 62 2.5 WSW 9 15 5 8 - - 0.0
05/05:00pm 4.8 0.7 -3.2 56 3.0 WSW 9 24 5 13 - - 0.0
05/04:30pm 6.2 2.0 -4.3 47 3.9 W 9 19 5 10 - - 0.0
05/04:00pm 7.1 3.3 -3.4 47 4.0 WNW 7 17 4 9 - - 0.0
05/03:30pm 7.7 3.9 -3.8 44 4.4 WNW 7 19 4 10 - - 0.0
05/03:00pm 7.5 3.0 -3.1 47 4.1 W 11 20 6 11 - - 0.0
05/02:30pm 8.0 3.2 -2.6 47 4.2 WNW 13 26 7 14 - - 0.0
05/02:00pm 8.2 4.0 -0.8 53 3.7 NW 11 28 6 15 - - 0.0
05/01:30pm 8.1 3.1 -1.1 52 3.8 WNW 15 26 8 14 - - 0.0
05/01:00pm 7.6 3.0 -1.4 53 3.6 WNW 13 28 7 15 - - 0.0
05/12:30pm 6.9 2.5 -2.3 52 3.6 WNW 11 19 6 10 - - 0.0
05/12:00pm 6.4 1.6 -2.5 53 3.4 NW 13 22 7 12 - - 0.0
05/11:30am 5.8 1.0 -2.8 54 3.3 WNW 13 26 7 14 - - 0.0
05/11:00am 5.1 -0.2 -3.7 53 3.3 WNW 15 26 8 14 - - 0.0
05/10:30am 4.5 -0.4 -3.5 56 3.0 WNW 13 26 7 14 - - 0.0
05/10:00am 3.6 -1.4 -4.3 56 2.8 WNW 13 28 7 15 - - 0.0
05/09:30am 3.0 -1.9 -3.8 61 2.4 WNW 13 24 7 13 - - 0.0
05/09:00am 2.6 -1.6 -3.9 62 2.3 WNW 9 20 5 11 - - 0.0
05/08:30am 1.5 -2.2 -4.1 66 2.1 WSW 6 13 3 7 - - 0.0
05/08:00am 1.1 -2.7 -4.1 68 1.9 WNW 7 15 4 8 - - 0.0
05/07:30am -0.2 -4.0 -3.9 76 1.3 SW 7 13 4 7 - - 0.0
05/07:00am -0.2 -4.0 -3.4 79 1.1 W 7 13 4 7 - - 0.0
05/06:30am 0.0 -3.8 -3.4 78 1.2 WNW 7 19 4 10 - - 0.0
05/06:00am 0.2 -4.3 -3.5 76 1.3 W 11 20 6 11 - - 0.0
05/05:30am -0.3 -4.1 -3.7 78 1.2 WNW 7 20 4 11 - - 0.0
05/05:00am -0.3 -3.9 -4.0 76 1.3 W 6 15 3 8 - - 0.0
05/04:30am -0.1 -4.0 -4.7 71 1.6 W 7 13 4 7 - - 0.0
05/04:00am 0.4 -4.3 -4.6 69 1.7 WSW 11 24 6 13 - - 0.0
05/03:30am 0.3 -5.1 -4.5 70 1.7 WSW 15 30 8 16 - - 0.0
05/03:00am 0.1 -4.6 -4.9 69 1.7 WSW 11 22 6 12 - - 0.0
05/02:30am 0.3 -4.3 -4.5 70 1.7 W 11 24 6 13 - - 0.0
05/02:00am 0.2 -4.1 -4.6 70 1.7 WSW 9 28 5 15 - - 0.0
05/01:30am 0.2 -3.7 -4.8 69 1.7 W 7 17 4 9 - - 0.0
05/01:00am 0.3 -3.6 -4.9 68 1.8 W 7 24 4 13 - - 0.0
05/12:30am 0.3 -3.4 -4.9 68 1.8 W 6 19 3 10 - - 0.0
05/12:00am 0.5 -3.5 -5.3 65 2.0 W 7 20 4 11 - - 0.0
 
Date/Time
EST
Temp
°C
App
Temp
°C
Dew
Point
°C
Rel
Hum
%
Delta-T
°C
Wind Press
QNH
hPa
Press
MSL
hPa
Rain since
9am
mm
Dir  Spd
km/h
Gust
km/h
Spd
kts
Gust
kts
04/11:30pm 0.6 -3.1 -4.8 67 1.9 WSW 6 20 3 11 - - 0.0
04/11:00pm 0.8 -2.5 -4.0 70 1.7 WNW 4 7 2 4 - - 0.0
04/10:30pm 1.6 -2.7 -4.7 63 2.3 W 9 19 5 10 - - 0.0
04/10:00pm 2.0 -2.6 -3.7 66 2.1 WSW 11 28 6 15 - - 0.0
04/09:30pm 2.3 -1.2 -1.7 75 1.5 WSW 7 15 4 8 - - 0.0
04/09:00pm 3.0 -0.5 -1.2 74 1.6 WNW 7 13 4 7 - - 0.0
04/08:30pm 3.6 -0.2 -0.4 75 1.6 W 9 19 5 10 - - 0.0
04/08:00pm 4.3 -0.1 0.5 76 1.5 W 13 26 7 14 - - 0.0
04/07:30pm 4.6 1.0 0.4 74 1.7 W 9 20 5 11 - - 0.0
04/07:00pm 5.1 1.1 0.7 73 1.8 W 11 32 6 17 - - 0.0
04/06:30pm 5.8 1.5 1.2 72 1.9 W 13 28 7 15 - - 0.0
04/06:00pm 6.3 1.8 2.0 74 1.9 W 15 28 8 15 - - 0.0
04/05:30pm 6.9 1.7 2.6 74 1.9 W 19 30 10 16 - - 0.0
04/05:00pm 7.9 3.6 3.0 71 2.2 W 15 30 8 16 - - 0.0
04/04:30pm 8.9 4.2 3.1 67 2.6 W 17 32 9 17 - - 0.0
04/04:00pm 10.0 5.3 3.1 62 3.2 W 17 28 9 15 - - 0.0
04/03:30pm 10.7 6.0 3.3 60 3.4 W 17 30 9 16 - - 0.0
04/03:00pm 12.2 6.6 0.9 46 5.0 W 20 41 11 22 - - 0.0
04/02:30pm 13.1 7.7 1.1 44 5.4 WNW 19 35 10 19 - - 0.0
04/02:00pm 13.6 8.3 1.9 45 5.4 WNW 19 37 10 20 - - 0.0
04/01:30pm 13.5 8.9 1.8 45 5.4 WNW 15 33 8 18 - - 0.0
04/01:00pm 12.9 7.6 1.6 46 5.1 WNW 19 37 10 20 - - 0.0
04/12:30pm 13.2 8.5 3.0 50 4.8 NW 17 30 9 16 - - 0.0
04/12:00pm 12.8 8.0 2.6 50 4.7 WNW 17 33 9 18 - - 0.0
04/11:30am 12.5 7.1 1.2 46 5.1 W 19 35 10 19 - - 0.0
04/11:00am 12.7 8.7 2.6 50 4.7 WNW 13 28 7 15 - - 0.0
04/10:30am 12.0 7.4 1.6 49 4.7 NW 15 28 8 15 - - 0.0
04/10:00am 11.2 7.0 1.5 51 4.3 WNW 13 24 7 13 - - 0.0
04/09:30am 10.7 6.9 1.8 54 4.0 WNW 11 22 6 12 - - 0.0
04/09:00am 9.5 6.6 2.6 62 3.1 NW 7 17 4 9 - - 0.0
04/08:30am 8.0 4.6 1.6 64 2.8 NW 9 20 5 11 - - 0.0
04/08:00am 6.4 3.4 1.1 69 2.2 WNW 6 13 3 7 - - 0.0
04/07:30am 3.4 0.4 0.5 81 1.2 NW 6 11 3 6 - - 0.0
04/07:00am 1.9 -0.5 0.0 87 0.7 NNW 2 6 1 3 - - 0.0
04/06:30am 0.7 -1.5 -1.2 87 0.8 CALM 0 2 0 1 - - 0.0
04/06:00am 0.6 -2.0 -1.9 83 1.0 NNW 2 2 1 1 - - 0.0
04/05:30am 2.1 -0.5 -1.7 76 1.4 NNW 2 4 1 2 - - 0.0
04/05:00am 3.0 0.5 -1.2 74 1.6 WNW 2 11 1 6 - - 0.0
04/04:30am 2.8 0.4 -0.6 78 1.3 WNW 2 11 1 6 - - 0.0
04/04:00am 2.7 0.7 -0.4 80 1.2 CALM 0 6 0 3 - - 0.0
04/03:30am 4.7 1.6 1.4 79 1.4 NNW 7 13 4 7 - - 0.0
04/03:00am 4.1 1.6 1.3 82 1.2 N 4 11 2 6 - - 0.0
04/02:30am 4.3 1.7 1.2 80 1.3 N 4 6 2 3 - - 0.0
04/02:00am 3.6 1.4 1.3 85 0.9 N 2 6 1 3 - - 0.0
04/01:30am 2.7 0.5 0.9 88 0.7 SSE 2 4 1 2 - - 0.0
04/01:00am 3.0 0.4 1.2 88 0.7 S 4 7 2 4 - - 0.0
04/12:30am 2.1 0.2 0.3 88 0.7 CALM 0 0 0 0 - - 0.0
04/12:00am 2.7 0.8 0.8 87 0.8 CALM 0 0 0 0 - - 0.0
 
Date/Time
EST
Temp
°C
App
Temp
°C
Dew
Point
°C
Rel
Hum
%
Delta-T
°C
Wind Press
QNH
hPa
Press
MSL
hPa
Rain since
9am
mm
Dir  Spd
km/h
Gust
km/h
Spd
kts
Gust
kts
03/11:30pm 3.0 1.1 0.7 85 0.9 CALM 0 0 0 0 - - 0.0
03/11:00pm 3.6 1.8 1.5 86 0.9 CALM 0 0 0 0 - - 0.0
03/10:30pm 3.8 2.0 1.4 84 1.0 CALM 0 2 0 1 - - 0.0
03/10:00pm 3.6 1.8 1.2 84 1.0 CALM 0 2 0 1 - - 0.0
03/09:30pm 3.9 2.2 1.6 85 1.0 CALM 0 0 0 0 - - 0.0
03/09:00pm 3.1 1.2 0.3 82 1.1 CALM 0 0 0 0 - - 0.0
03/08:30pm 4.0 2.1 0.7 79 1.3 CALM 0 0 0 0 - - 0.0
03/08:00pm 4.9 2.7 1.0 76 1.6 WSW 2 6 1 3 - - 0.0
03/07:30pm 6.0 3.4 0.8 69 2.2 WSW 4 4 2 2 - - 0.0
03/07:00pm 6.7 4.1 0.8 66 2.5 W 4 6 2 3 - - 0.0
03/06:30pm 6.7 4.9 1.4 69 2.3 CALM 0 4 0 2 - - 0.0
03/06:00pm 7.1 5.2 0.5 63 2.8 CALM 0 2 0 1 - - 0.0
03/05:30pm 9.2 7.2 -0.4 51 4.0 CALM 0 2 0 1 - - 0.0
03/05:00pm 11.1 7.9 -0.4 45 4.9 W 6 17 3 9 - - 0.0
03/04:30pm 12.3 10.0 0.7 45 5.1 WSW 2 6 1 3 - - 0.0
03/04:00pm 12.5 9.1 -0.4 41 5.6 WSW 7 13 4 7 - - 0.0
03/03:30pm 13.3 9.9 -0.7 38 6.1 WSW 7 13 4 7 - - 0.0
03/03:00pm 13.7 10.4 -1.5 35 6.5 W 6 13 3 7 - - 0.0
03/02:30pm 13.8 9.6 -3.9 29 7.2 W 9 17 5 9 - - 0.0
03/02:00pm 13.9 10.1 -3.4 30 7.1 W 7 13 4 7 - - 0.0
03/01:30pm 13.8 9.9 -4.4 28 7.3 WSW 7 15 4 8 - - 0.0
03/01:00pm 13.5 9.3 -4.2 29 7.1 W 9 19 5 10 - - 0.0
03/12:30pm 13.3 8.8 -6.8 24 7.6 WSW 9 19 5 10 - - 0.0
03/12:00pm 13.8 9.5 -5.3 26 7.5 WNW 9 17 5 9 - - 0.0
03/11:30am 13.1 8.8 -5.0 28 7.1 W 9 17 5 9 - - 0.0
03/11:00am 12.6 8.6 -5.4 28 7.0 WNW 7 15 4 8 - - 0.0
03/10:30am 11.3 7.7 -4.0 34 6.0 NW 6 11 3 6 - - 0.0
03/10:00am 9.8 7.4 -2.8 41 5.0 CALM 0 0 0 0 - - 0.0
03/09:30am 5.3 3.8 3.0 85 1.0 CALM 0 0 0 0 - - 0.0
03/09:00am 2.6 0.8 1.1 90 0.6 CALM 0 0 0 0 - - 0.0
03/08:30am 1.3 -0.6 0.6 95 0.3 CALM 0 0 0 0 - - 0.0
03/08:00am -1.4 -3.7 -2.0 96 0.1 CALM 0 0 0 0 - - 0.0
03/07:30am -3.2 -5.7 -3.9 95 0.1 CALM 0 0 0 0 - - 0.0
03/07:00am -3.7 -6.3 -4.5 94 0.1 CALM 0 0 0 0 - - 0.0
03/06:30am -3.1 -5.6 -3.8 95 0.1 CALM 0 0 0 0 - - 0.0
03/06:00am -3.3 -5.8 -4.0 95 0.1 CALM 0 0 0 0 - - 0.0
03/05:30am -3.5 -6.0 -4.3 94 0.1 CALM 0 0 0 0 - - 0.0
03/05:00am -3.3 -5.8 -4.0 95 0.1 CALM 0 0 0 0 - - 0.0
03/04:30am -3.0 -5.5 -3.7 95 0.1 CALM 0 0 0 0 - - 0.0
03/04:00am -3.0 -5.5 -3.7 95 0.1 CALM 0 0 0 0 - - 0.0
03/03:30am -2.8 -5.2 -3.5 95 0.1 CALM 0 0 0 0 - - 0.0
03/03:00am -2.6 -5.0 -3.3 95 0.1 CALM 0 0 0 0 - - 0.0
03/02:30am -2.4 -4.8 -3.1 95 0.1 CALM 0 0 0 0 - - 0.0
03/02:00am -2.4 -4.8 -3.1 95 0.1 CALM 0 0 0 0 - - 0.0
03/01:30am -2.1 -4.5 -2.8 95 0.1 CALM 0 0 0 0 - - 0.0
03/01:00am -1.7 -4.0 -2.4 95 0.2 CALM 0 0 0 0 - - 0.0
03/12:30am -1.7 -4.0 -2.5 94 0.2 CALM 0 0 0 0 - - 0.0
03/12:00am -1.1 -3.3 -1.9 94 0.2 CALM 0 0 0 0 - - 0.0
 
Date/Time
EST
Temp
°C
App
Temp
°C
Dew
Point
°C
Rel
Hum
%
Delta-T
°C
Wind Press
QNH
hPa
Press
MSL
hPa
Rain since
9am
mm
Dir  Spd
km/h
Gust
km/h
Spd
kts
Gust
kts
02/11:30pm -1.0 -3.3 -2.1 92 0.4 CALM 0 0 0 0 - - 0.0
02/11:00pm -0.4 -2.6 -1.5 92 0.4 CALM 0 0 0 0 - - 0.0
02/10:30pm 0.1 -2.0 -1.0 92 0.4 CALM 0 0 0 0 - - 0.0
02/10:00pm 0.5 -1.6 -0.9 90 0.6 CALM 0 0 0 0 - - 0.0
02/09:30pm 0.6 -1.6 -1.3 87 0.7 CALM 0 0 0 0 - - 0.0

Other formats

Comma delimited format used in spreadsheet applications
http://www.bom.gov.au/fwo/IDN60801/IDN60801.95686.axf

JavaScript Object Notation format (JSON) in row-major order
http://www.bom.gov.au/fwo/IDN60801/IDN60801.95686.json

Data quality

Most of these data are generated automatically and are frequently updated. Quality checks on data are not normally performed. It is possible for incorrect values to appear. Refer to information at About Latest Weather Observations and please check the disclaimer before using these data.